Time;durP1;ratioP1;P1;durP2;ratioP2;P2;SDS_P1;SDS_P2;PMS_P1;PMS_P2;Temp;Humidity;BMP_temperature;BMP_pressure;BME280_temperature;BME280_humidity;BME280_pressure;Samples;Min_cycle;Max_cycle;Signal;HPM_P1;HPM_P2
2022/03/24 00:00:10;;;;;;;16.90;8.80;;;;;;;4.59;29.58;101248.08;117441;1185;21885;-48
2022/03/24 00:02:39;;;;;;;19.10;9.40;;;;;;;4.58;29.44;101243.34;117384;1185;21951;-48
2022/03/24 00:05:09;;;;;;;17.70;9.40;;;;;;;4.56;29.43;101245.56;117454;1181;22963;-64
2022/03/24 00:07:37;;;;;;;18.50;8.80;;;;;;;4.54;29.33;101237.15;117406;1185;21838;-65
2022/03/24 00:10:06;;;;;;;20.80;10.00;;;;;;;4.53;29.40;101238.88;117374;1185;23442;-48
2022/03/24 00:12:36;;;;;;;19.40;8.90;;;;;;;4.52;29.40;101237.96;117421;1183;21863;-48
2022/03/24 00:15:06;;;;;;;16.00;8.70;;;;;;;4.51;29.53;101235.15;117378;1186;21836;-48
2022/03/24 00:17:35;;;;;;;14.70;6.50;;;;;;;4.49;29.52;101231.47;117387;1185;22552;-48
2022/03/24 00:20:04;;;;;;;15.70;7.00;;;;;;;4.48;29.51;101228.98;117403;1185;21909;-48
2022/03/24 00:22:52;;;;;;;13.80;6.80;;;;;;;4.46;29.62;101229.63;117309;1180;21838;-65
2022/03/24 00:25:21;;;;;;;14.60;7.90;;;;;;;4.43;29.67;101223.47;117270;1185;23449;-64
2022/03/24 00:27:57;;;;;;;12.70;7.60;;;;;;;4.41;29.49;101222.21;117337;1185;22818;-64
2022/03/24 00:30:26;;;;;;;16.80;8.00;;;;;;;4.39;29.53;101216.97;117442;1184;21911;-65
2022/03/24 00:32:55;;;;;;;16.70;8.30;;;;;;;4.37;29.50;101218.48;117339;1186;24358;-48
2022/03/24 00:35:24;;;;;;;16.60;9.00;;;;;;;4.35;29.63;101213.02;117315;1185;23455;-65
2022/03/24 00:37:53;;;;;;;22.40;11.40;;;;;;;4.33;29.73;101206.70;117359;1185;23554;-48
2022/03/24 00:40:22;;;;;;;18.20;10.70;;;;;;;4.30;29.58;101199.17;117309;1185;23475;-47
2022/03/24 00:42:52;;;;;;;13.30;7.80;;;;;;;4.29;29.76;101197.23;117368;1185;21944;-47
2022/03/24 00:45:21;;;;;;;14.60;7.40;;;;;;;4.27;29.74;101190.04;117369;1185;23471;-47
2022/03/24 00:47:50;;;;;;;11.10;6.60;;;;;;;4.25;29.61;101183.91;117433;1184;24157;-66
2022/03/24 00:50:18;;;;;;;13.00;6.70;;;;;;;4.23;29.76;101181.77;117415;1186;22925;-64
2022/03/24 00:52:47;;;;;;;14.40;6.70;;;;;;;4.19;29.67;101176.98;117430;1184;23996;-47
2022/03/24 00:55:19;;;;;;;16.30;7.80;;;;;;;4.14;29.68;101166.95;117416;1185;22006;-64
2022/03/24 00:57:50;;;;;;;12.70;6.10;;;;;;;4.09;29.84;101165.27;117389;1185;22928;-47
2022/03/24 01:00:20;;;;;;;11.10;6.00;;;;;;;4.05;29.68;101155.75;117363;1186;21929;-47
2022/03/24 01:02:49;;;;;;;12.20;6.60;;;;;;;4.01;29.82;101150.63;117454;1185;22617;-60
2022/03/24 01:05:23;;;;;;;11.40;6.10;;;;;;;3.99;29.75;101147.11;117393;1184;23548;-63
2022/03/24 01:07:53;;;;;;;10.10;5.80;;;;;;;3.99;29.81;101144.50;117397;1188;22926;-47
2022/03/24 01:10:23;;;;;;;12.30;5.70;;;;;;;4.01;29.95;101142.27;117416;1185;22973;-47
2022/03/24 01:12:51;;;;;;;10.80;6.50;;;;;;;4.00;29.86;101141.23;117316;1185;21850;-47
2022/03/24 01:15:22;;;;;;;12.70;6.40;;;;;;;3.99;29.90;101136.14;117342;1186;21944;-47
2022/03/24 01:17:51;;;;;;;10.70;5.70;;;;;;;3.98;29.95;101137.36;117298;1184;22916;-47
2022/03/24 01:20:21;;;;;;;15.10;6.20;;;;;;;3.97;29.90;101133.67;117396;1185;24170;-63
2022/03/24 01:22:50;;;;;;;15.40;6.40;;;;;;;3.97;29.89;101131.78;117358;1185;21895;-62
2022/03/24 01:25:20;;;;;;;9.60;5.50;;;;;;;3.97;30.02;101132.81;117384;1186;23576;-64
2022/03/24 01:27:51;;;;;;;11.40;6.20;;;;;;;3.96;29.87;101128.45;117349;1185;21864;-60
2022/03/24 01:30:20;;;;;;;11.90;6.30;;;;;;;3.96;29.91;101123.25;117402;1185;21904;-63
2022/03/24 01:32:49;;;;;;;12.20;6.00;;;;;;;3.98;30.08;101124.66;117391;1186;23609;-47
2022/03/24 01:35:18;;;;;;;12.80;6.40;;;;;;;4.00;29.94;101122.45;117435;1186;23557;-47
2022/03/24 01:37:48;;;;;;;12.30;5.80;;;;;;;4.02;30.08;101119.39;117435;1185;23645;-47
2022/03/24 01:40:18;;;;;;;10.90;5.90;;;;;;;4.03;30.33;101119.23;117421;1186;23233;-47
2022/03/24 01:42:47;;;;;;;12.40;5.90;;;;;;;4.04;30.25;101115.27;117505;1186;23608;-47
2022/03/24 01:45:15;;;;;;;10.50;5.40;;;;;;;4.04;29.86;101110.91;117537;1185;21856;-47
2022/03/24 01:47:45;;;;;;;12.40;6.60;;;;;;;4.03;30.17;101107.08;117485;1185;23600;-47
2022/03/24 01:50:14;;;;;;;9.70;5.70;;;;;;;4.02;30.32;101104.45;117565;1186;23586;-47
2022/03/24 01:52:44;;;;;;;13.10;5.70;;;;;;;4.01;30.15;101098.36;117440;1186;22034;-63
2022/03/24 01:55:13;;;;;;;11.80;6.10;;;;;;;4.00;30.12;101096.93;117520;1184;22609;-47
2022/03/24 01:57:42;;;;;;;17.50;6.20;;;;;;;3.97;30.22;101091.30;117452;1184;21974;-47
2022/03/24 02:00:13;;;;;;;11.50;6.00;;;;;;;3.93;30.18;101088.08;117418;1185;22766;-64
2022/03/24 02:02:43;;;;;;;11.20;5.70;;;;;;;3.90;29.98;101093.01;117472;1185;22619;-48
2022/03/24 02:05:11;;;;;;;11.10;5.60;;;;;;;3.84;29.96;101089.41;117498;1185;22973;-64
2022/03/24 02:07:42;;;;;;;13.00;5.90;;;;;;;3.81;30.08;101088.27;117487;1184;22009;-48
2022/03/24 02:10:20;;;;;;;11.40;6.00;;;;;;;3.76;30.23;101082.23;117309;1185;24710;-48
2022/03/24 02:12:52;;;;;;;11.40;6.00;;;;;;;3.73;30.13;101080.61;117421;1185;21898;-48
2022/03/24 02:15:20;;;;;;;;;;;;;;;3.69;30.15;101077.04;117379;1185;22976;-47
2022/03/24 02:17:52;;;;;;;10.40;6.10;;;;;;;3.68;30.43;101072.48;117430;1185;21866;-47
2022/03/24 02:20:35;;;;;;;14.40;7.70;;;;;;;3.66;30.21;101072.79;118136;1184;21858;-64
2022/03/24 02:23:03;;;;;;;15.00;6.10;;;;;;;3.63;30.27;101072.02;117417;1186;21963;-63
2022/03/24 02:25:33;;;;;;;16.00;6.30;;;;;;;3.61;30.34;101072.48;117437;1185;23471;-47
2022/03/24 02:28:03;;;;;;;;;;;;;;;3.58;30.38;101068.23;117539;1185;22994;-62
2022/03/24 02:30:31;;;;;;;13.70;6.10;;;;;;;3.57;30.30;101065.77;117385;1189;21862;-63
2022/03/24 02:33:00;;;;;;;11.00;5.50;;;;;;;3.57;30.39;101064.70;117387;1185;23445;-51
2022/03/24 02:35:29;;;;;;;13.10;6.20;;;;;;;3.58;30.51;101060.42;117456;1185;21855;-47
2022/03/24 02:37:58;;;;;;;10.70;6.00;;;;;;;3.57;30.65;101060.38;117480;1185;23485;-48
2022/03/24 02:40:27;;;;;;;14.30;5.20;;;;;;;3.59;30.48;101054.17;117511;1185;22894;-64
2022/03/24 02:42:58;;;;;;;;;;;;;;;3.59;30.46;101055.40;117495;1185;21821;-64
2022/03/24 02:45:26;;;;;;;9.60;5.60;;;;;;;3.60;30.64;101055.59;117451;1186;22116;-64
2022/03/24 02:47:56;;;;;;;14.60;6.10;;;;;;;3.60;30.59;101051.79;117496;1185;21911;-64
2022/03/24 02:50:24;;;;;;;9.60;5.60;;;;;;;3.60;30.58;101051.27;117415;1185;23472;-60
2022/03/24 02:52:58;;;;;;;11.00;6.70;;;;;;;3.61;30.58;101043.65;117384;1184;21824;-63
2022/03/24 02:55:28;;;;;;;11.40;6.60;;;;;;;3.61;30.74;101042.78;117442;1185;21854;-48
2022/03/24 02:57:58;;;;;;;12.10;5.70;;;;;;;3.62;30.73;101038.65;117401;1185;22922;-63
2022/03/24 03:00:27;;;;;;;10.80;6.60;;;;;;;3.62;30.48;101037.08;117498;1184;23533;-48
2022/03/24 03:02:56;;;;;;;13.20;5.90;;;;;;;3.61;30.66;101032.20;117532;1185;22941;-47
2022/03/24 03:05:25;;;;;;;12.20;6.30;;;;;;;3.62;30.61;101031.34;117507;1185;23619;-64
2022/03/24 03:07:53;;;;;;;11.20;6.10;;;;;;;3.61;30.83;101032.20;117387;1183;21917;-48
2022/03/24 03:10:42;;;;;;;12.00;5.90;;;;;;;3.62;30.81;101029.10;117344;1185;21850;-47
2022/03/24 03:13:11;;;;;;;13.10;6.10;;;;;;;3.61;30.76;101024.91;117352;1186;21851;-63
2022/03/24 03:15:59;;;;;;;10.40;5.10;;;;;;;3.62;30.66;101024.75;117392;1182;22612;-64
2022/03/24 03:18:29;;;;;;;9.90;5.60;;;;;;;3.62;30.84;101025.28;117441;1186;22941;-64
2022/03/24 03:20:58;;;;;;;11.90;6.10;;;;;;;3.63;30.89;101022.87;117344;1185;22178;-64
2022/03/24 03:23:27;;;;;;;12.20;5.90;;;;;;;3.63;30.78;101024.45;117406;1185;21996;-64
2022/03/24 03:25:56;;;;;;;9.80;5.60;;;;;;;3.63;30.83;101020.98;117449;1188;21849;-48
2022/03/24 03:28:25;;;;;;;10.20;5.60;;;;;;;3.62;30.78;101015.73;117408;1186;24159;-63
2022/03/24 03:30:54;;;;;;;10.90;6.00;;;;;;;3.59;30.98;101017.04;117426;1180;21891;-47
2022/03/24 03:33:23;;;;;;;10.00;5.40;;;;;;;3.53;30.86;101016.55;117410;1185;24157;-47
2022/03/24 03:35:53;;;;;;;10.30;5.50;;;;;;;3.45;30.83;101015.45;117428;1186;23550;-64
2022/03/24 03:38:22;;;;;;;14.20;6.50;;;;;;;3.35;30.81;101015.02;117420;1186;22925;-47
2022/03/24 03:40:52;;;;;;;13.10;6.90;;;;;;;3.26;30.98;101014.08;117553;1185;23471;-48
2022/03/24 03:43:22;;;;;;;11.30;5.90;;;;;;;3.14;30.51;101012.35;117510;1185;21840;-48
2022/03/24 03:45:51;;;;;;;11.60;6.40;;;;;;;3.03;30.67;101011.54;117493;1185;22725;-47
2022/03/24 03:48:20;;;;;;;10.10;6.00;;;;;;;2.93;30.77;101007.95;117385;1185;23551;-63
2022/03/24 03:50:50;;;;;;;16.20;6.00;;;;;;;2.83;30.78;101010.27;117363;1185;23547;-47
2022/03/24 03:53:19;;;;;;;11.40;5.80;;;;;;;2.73;30.72;101007.71;117453;1185;23001;-64
2022/03/24 03:55:48;;;;;;;14.90;6.40;;;;;;;2.63;30.67;101005.35;117490;1185;23551;-63
2022/03/24 03:58:18;;;;;;;12.80;6.90;;;;;;;2.54;30.83;101006.64;117382;1185;22934;-48
2022/03/24 04:00:56;;;;;;;11.70;5.80;;;;;;;2.47;30.92;101006.92;117499;1185;21961;-48
2022/03/24 04:03:25;;;;;;;12.50;6.80;;;;;;;2.39;30.88;101002.90;117385;1185;22925;-47
2022/03/24 04:05:56;;;;;;;16.50;7.20;;;;;;;2.33;30.92;100997.83;117479;1184;23650;-48
2022/03/24 04:08:24;;;;;;;9.30;5.40;;;;;;;2.31;31.14;100995.17;117394;1186;22892;-47
2022/03/24 04:10:53;;;;;;;14.10;7.90;;;;;;;2.29;31.14;100995.14;117444;1184;22565;-63
2022/03/24 04:13:22;;;;;;;13.70;7.20;;;;;;;2.27;31.17;100993.67;117324;1186;23481;-65
2022/03/24 04:15:54;;;;;;;17.50;7.10;;;;;;;2.25;31.14;100993.79;117384;1186;21849;-47
2022/03/24 04:18:23;;;;;;;15.50;8.00;;;;;;;2.22;31.23;100993.17;117491;1185;21848;-65
2022/03/24 04:20:52;;;;;;;16.70;7.10;;;;;;;2.19;31.31;100995.17;117500;1186;21987;-66
2022/03/24 04:23:21;;;;;;;16.80;7.40;;;;;;;2.17;31.44;100990.77;117474;1184;22909;-65
2022/03/24 04:25:53;;;;;;;15.80;8.00;;;;;;;2.16;31.40;100988.84;117419;1186;21854;-48
2022/03/24 04:28:22;;;;;;;14.60;7.60;;;;;;;2.18;31.39;100988.73;117382;1185;21867;-65
2022/03/24 04:30:50;;;;;;;18.80;9.10;;;;;;;2.23;31.53;100989.38;117493;1186;23080;-48
2022/03/24 04:33:23;;;;;;;14.80;10.00;;;;;;;2.30;31.78;100989.08;117416;1185;21864;-49
2022/03/24 04:35:52;;;;;;;15.50;6.80;;;;;;;2.39;31.78;100982.79;117401;1186;21851;-48
2022/03/24 04:38:22;;;;;;;14.70;6.60;;;;;;;2.50;31.93;100978.11;117537;1185;23471;-68
2022/03/24 04:40:50;;;;;;;17.50;7.40;;;;;;;2.61;31.85;100978.27;117431;1186;21846;-66
2022/03/24 04:43:19;;;;;;;21.20;7.60;;;;;;;2.72;32.04;100978.58;117364;1186;24181;-49
2022/03/24 04:45:49;;;;;;;26.10;7.30;;;;;;;2.83;31.98;100971.95;117427;1186;22614;-49
2022/03/24 04:48:18;;;;;;;31.70;7.70;;;;;;;2.93;32.01;100971.90;117327;1186;23486;-49
2022/03/24 04:50:46;;;;;;;15.20;6.50;;;;;;;3.04;32.18;100970.82;117550;1185;21845;-49
2022/03/24 04:53:16;;;;;;;17.70;6.70;;;;;;;3.16;32.06;100969.41;119479;1184;22182;-49
2022/03/24 04:55:45;;;;;;;15.40;6.90;;;;;;;3.28;32.14;100966.79;119483;1184;22131;-66
2022/03/24 04:58:14;;;;;;;10.50;5.30;;;;;;;3.44;32.30;100966.15;119556;1183;22662;-50
2022/03/24 05:00:43;;;;;;;9.80;5.30;;;;;;;3.62;32.43;100964.02;119574;1183;21828;-59
2022/03/24 05:03:11;;;;;;;11.70;5.50;;;;;;;3.79;32.45;100963.41;119641;1184;21801;-52
2022/03/24 05:05:42;;;;;;;13.50;5.70;;;;;;;3.98;32.63;100958.30;119574;1183;21876;-51
2022/03/24 05:08:30;;;;;;;13.10;4.90;;;;;;;4.18;32.46;100950.77;119470;1184;22329;-65
2022/03/24 05:10:59;;;;;;;10.50;5.30;;;;;;;4.35;32.53;100948.38;117737;1185;21890;-56
2022/03/24 05:13:47;;;;;;;11.70;6.70;;;;;;;4.56;32.63;100944.33;117372;1184;23091;-60
2022/03/24 05:16:16;;;;;;;18.60;8.20;;;;;;;4.83;32.91;100940.00;117419;1185;23077;-64
2022/03/24 05:19:04;;;;;;;19.70;9.60;;;;;;;5.16;32.88;100932.64;117379;1185;23559;-49
2022/03/24 05:21:33;;;;;;;18.70;9.30;;;;;;;5.44;33.05;100930.36;117382;1185;21932;-49
2022/03/24 05:24:06;;;;;;;19.80;8.30;;;;;;;5.70;32.96;100930.80;117352;1184;22941;-65
2022/03/24 05:26:37;;;;;;;20.20;7.90;;;;;;;5.92;32.80;100927.48;117404;1185;22813;-49
2022/03/24 05:29:07;;;;;;;17.00;8.80;;;;;;;6.11;32.66;100924.34;117413;1185;21844;-49
2022/03/24 05:31:37;;;;;;;16.60;8.40;;;;;;;6.27;32.71;100921.94;117381;1184;21862;-64
2022/03/24 05:34:06;;;;;;;17.50;8.90;;;;;;;6.42;32.78;100918.66;118784;1185;23465;-49
2022/03/24 05:36:34;;;;;;;17.10;8.20;;;;;;;6.59;32.80;100921.52;117347;1185;23547;-66
2022/03/24 05:39:04;;;;;;;15.90;7.30;;;;;;;6.78;32.88;100915.98;117339;1185;23472;-65
2022/03/24 05:41:33;;;;;;;14.50;6.60;;;;;;;7.00;33.15;100919.02;117316;1184;23553;-50
2022/03/24 05:44:05;;;;;;;12.30;7.60;;;;;;;7.22;32.92;100916.63;117351;1186;22929;-68
2022/03/24 05:46:46;;;;;;;14.10;8.30;;;;;;;7.46;32.83;100915.29;117296;1185;23551;-50
2022/03/24 05:49:19;;;;;;;10.10;6.00;;;;;;;7.66;32.87;100913.19;117348;1180;21860;-50
2022/03/24 05:51:49;;;;;;;14.70;7.70;;;;;;;7.87;32.78;100909.34;117391;1189;21897;-51
2022/03/24 05:54:18;;;;;;;13.80;7.20;;;;;;;8.08;32.99;100906.52;117338;1186;21852;-66
2022/03/24 05:56:47;;;;;;;13.50;7.90;;;;;;;8.29;33.05;100901.91;117303;1184;24229;-66
2022/03/24 05:59:16;;;;;;;12.60;7.30;;;;;;;8.52;32.96;100899.77;117339;1185;21858;-48
2022/03/24 06:01:46;;;;;;;13.80;6.10;;;;;;;8.75;32.97;100897.61;117243;1186;21883;-50
2022/03/24 06:04:15;;;;;;;10.50;5.80;;;;;;;8.98;32.83;100895.23;117321;1186;21941;-64
2022/03/24 06:06:44;;;;;;;8.70;5.40;;;;;;;9.19;32.85;100889.84;117148;1189;23468;-64
2022/03/24 06:09:13;;;;;;;11.90;5.70;;;;;;;9.36;32.85;100887.05;117389;1185;23573;-65
2022/03/24 06:11:42;;;;;;;9.80;6.00;;;;;;;9.57;32.79;100883.73;117371;1186;21848;-51
2022/03/24 06:14:12;;;;;;;13.20;5.90;;;;;;;9.77;32.60;100881.96;117352;1185;21866;-49
2022/03/24 06:16:43;;;;;;;11.00;6.00;;;;;;;9.96;32.78;100878.61;117332;1186;22307;-65
2022/03/24 06:19:11;;;;;;;11.20;6.50;;;;;;;10.14;32.63;100876.48;117302;1186;23573;-50
2022/03/24 06:21:53;;;;;;;13.50;6.90;;;;;;;10.32;32.57;100873.98;117236;1186;22953;-65
2022/03/24 06:24:21;;;;;;;12.90;6.60;;;;;;;10.53;32.60;100869.18;117372;1186;23675;-65
2022/03/24 06:26:52;;;;;;;12.30;6.50;;;;;;;10.74;32.50;100873.48;117296;1186;22319;-65
2022/03/24 06:29:22;;;;;;;14.10;6.90;;;;;;;10.93;32.47;100873.20;117322;1185;21852;-49
2022/03/24 06:31:51;;;;;;;15.30;8.10;;;;;;;11.12;32.55;100874.49;117326;1181;23567;-50
2022/03/24 06:34:20;;;;;;;11.20;6.70;;;;;;;11.36;32.67;100877.48;117407;1185;24727;-65
2022/03/24 06:36:50;;;;;;;13.60;6.60;;;;;;;11.62;32.58;100870.94;117476;1183;21855;-50
2022/03/24 06:39:21;;;;;;;12.60;6.00;;;;;;;11.86;32.51;100868.45;117459;1185;21839;-50
2022/03/24 06:41:52;;;;;;;12.30;6.40;;;;;;;12.08;32.46;100862.80;117329;1185;22550;-66
2022/03/24 06:44:21;;;;;;;20.00;11.60;;;;;;;12.34;32.49;100863.21;117303;1185;23574;-49
2022/03/24 06:46:49;;;;;;;11.70;6.10;;;;;;;12.59;32.50;100858.83;117284;1185;23556;-66
2022/03/24 06:49:18;;;;;;;10.20;5.60;;;;;;;12.84;32.44;100852.00;117339;1185;21852;-64
2022/03/24 06:51:49;;;;;;;12.60;6.00;;;;;;;13.02;32.34;100848.93;117517;1185;21872;-63
2022/03/24 06:54:18;;;;;;;12.30;6.90;;;;;;;13.20;32.15;100848.14;117400;1186;21855;-48
2022/03/24 06:56:49;;;;;;;12.20;6.90;;;;;;;13.35;32.05;100838.55;117428;1185;24167;-51
2022/03/24 06:59:17;;;;;;;13.30;6.30;;;;;;;13.51;32.11;100835.65;117479;1185;22796;-49
2022/03/24 07:01:49;;;;;;;12.60;6.40;;;;;;;13.66;31.95;100833.30;117321;1185;21839;-65
2022/03/24 07:04:18;;;;;;;13.40;6.70;;;;;;;13.79;31.96;100830.41;117354;1185;23075;-65
2022/03/24 07:06:48;;;;;;;11.20;6.10;;;;;;;13.95;31.94;100826.94;117362;1185;24166;-65
2022/03/24 07:09:16;;;;;;;12.50;5.90;;;;;;;14.13;31.83;100829.60;117526;1185;21857;-49
2022/03/24 07:11:45;;;;;;;16.00;7.00;;;;;;;14.25;31.69;100824.60;117560;1185;23469;-64
2022/03/24 07:14:14;;;;;;;11.50;6.40;;;;;;;14.38;31.74;100819.90;117398;1185;23472;-64
2022/03/24 07:16:42;;;;;;;11.50;5.50;;;;;;;14.52;31.57;100822.63;117360;1185;21840;-65
2022/03/24 07:19:12;;;;;;;10.90;5.30;;;;;;;14.64;31.59;100817.61;117521;1185;21849;-66
2022/03/24 07:21:47;;;;;;;11.80;5.80;;;;;;;14.75;31.34;100816.14;117331;1185;23519;-50
2022/03/24 07:24:15;;;;;;;11.20;5.40;;;;;;;14.84;31.27;100815.39;117526;1184;22635;-66
2022/03/24 07:26:45;;;;;;;13.90;5.90;;;;;;;14.98;31.34;100818.10;117424;1185;21849;-50
2022/03/24 07:29:14;;;;;;;12.00;5.60;;;;;;;15.19;31.27;100811.59;117420;1186;22986;-65
2022/03/24 07:31:42;;;;;;;10.50;5.80;;;;;;;15.37;31.29;100811.83;117527;1184;23445;-64
2022/03/24 07:34:11;;;;;;;13.10;7.40;;;;;;;15.51;31.20;100814.48;117511;1185;26750;-72
2022/03/24 07:36:43;;;;;;;15.70;8.20;;;;;;;15.64;31.02;100811.33;117419;1184;23663;-51
2022/03/24 07:39:12;;;;;;;13.00;6.20;;;;;;;15.82;30.94;100806.95;117364;1182;21867;-66
2022/03/24 07:41:44;;;;;;;10.90;5.30;;;;;;;16.06;31.05;100805.27;117367;1185;22888;-54
2022/03/24 07:44:12;;;;;;;11.00;6.70;;;;;;;16.22;30.68;100803.40;117275;1180;23579;-50
2022/03/24 07:46:43;;;;;;;11.30;4.90;;;;;;;16.36;30.67;100800.67;119470;1184;22195;-61
2022/03/24 07:49:12;;;;;;;10.00;5.50;;;;;;;16.44;30.52;100796.38;119109;1185;23475;-64
2022/03/24 07:51:43;;;;;;;10.70;6.00;;;;;;;16.45;30.49;100791.38;117312;1185;21861;-62
2022/03/24 07:54:13;;;;;;;9.30;5.30;;;;;;;16.47;30.55;100786.52;118305;1184;23445;-67
2022/03/24 07:56:43;;;;;;;15.10;5.20;;;;;;;16.55;30.45;100782.77;117324;1185;21914;-51
2022/03/24 07:59:13;;;;;;;11.50;5.70;;;;;;;16.70;30.35;100782.82;117376;1185;21875;-68
2022/03/24 08:01:43;;;;;;;12.20;4.70;;;;;;;16.91;30.37;100777.94;117341;1185;21849;-67
2022/03/24 08:04:12;;;;;;;12.10;5.20;;;;;;;17.10;30.39;100769.36;117384;1185;23569;-72
2022/03/24 08:06:44;;;;;;;11.30;6.00;;;;;;;17.21;30.09;100769.66;117493;1184;22610;-69
2022/03/24 08:09:15;;;;;;;11.00;5.80;;;;;;;17.40;30.03;100768.88;117459;1183;22841;-67
2022/03/24 08:11:56;;;;;;;10.40;5.50;;;;;;;17.58;29.93;100761.88;117228;1185;23595;-65
2022/03/24 08:14:26;;;;;;;15.10;6.80;;;;;;;17.64;29.90;100760.05;117310;1185;23538;-67
2022/03/24 08:16:55;;;;;;;11.20;5.50;;;;;;;17.81;29.76;100756.27;117284;1185;23573;-52
2022/03/24 08:19:25;;;;;;;10.80;5.40;;;;;;;17.99;29.86;100750.49;117333;1184;22864;-53
2022/03/24 08:21:53;;;;;;;9.30;5.60;;;;;;;18.07;29.62;100749.30;117331;1185;21848;-52
2022/03/24 08:24:22;;;;;;;11.20;5.70;;;;;;;18.15;29.69;100743.33;117459;1184;22790;-67
2022/03/24 08:26:51;;;;;;;11.40;5.90;;;;;;;18.12;28.99;100742.88;117462;1184;23548;-68
2022/03/24 08:29:19;;;;;;;10.70;6.20;;;;;;;18.22;29.29;100736.65;117302;1186;21850;-53
2022/03/24 08:31:50;;;;;;;11.40;6.10;;;;;;;18.33;29.44;100736.24;117377;1185;23538;-68
2022/03/24 08:34:20;;;;;;;12.90;5.60;;;;;;;18.42;29.18;100735.17;117351;1185;21917;-54
2022/03/24 08:36:49;;;;;;;8.20;5.40;;;;;;;18.44;29.09;100729.22;117407;1185;22951;-68
2022/03/24 08:39:18;;;;;;;7.20;4.80;;;;;;;18.59;29.25;100729.36;117468;1185;21991;-53
2022/03/24 08:41:47;;;;;;;11.80;5.70;;;;;;;18.78;29.25;100723.44;117387;1185;23554;-67
2022/03/24 08:44:16;;;;;;;8.30;5.60;;;;;;;18.91;29.13;100717.38;117379;1186;23641;-68
2022/03/24 08:46:46;;;;;;;10.90;5.90;;;;;;;19.01;29.15;100715.77;117333;1186;21858;-54
2022/03/24 08:49:14;;;;;;;12.90;6.00;;;;;;;19.02;28.87;100714.81;117274;1179;22274;-52
2022/03/24 08:51:47;;;;;;;15.80;7.10;;;;;;;19.04;28.94;100716.69;117377;1185;22803;-53
2022/03/24 08:54:16;;;;;;;15.10;7.10;;;;;;;19.18;28.93;100711.65;117362;1186;23546;-53
2022/03/24 08:56:44;;;;;;;12.00;6.90;;;;;;;19.40;28.96;100705.38;117357;1185;24193;-67
2022/03/24 08:59:13;;;;;;;13.90;7.10;;;;;;;19.58;28.65;100703.16;117514;1184;23471;-67
2022/03/24 09:01:43;;;;;;;10.40;6.90;;;;;;;19.66;28.80;100698.02;117391;1186;22801;-69
2022/03/24 09:04:14;;;;;;;13.70;7.00;;;;;;;19.68;28.71;100698.27;117387;1182;21846;-68
2022/03/24 09:06:44;;;;;;;13.70;7.70;;;;;;;19.73;28.56;100695.55;117335;1186;23576;-69
2022/03/24 09:09:32;;;;;;;15.60;8.60;;;;;;;19.83;28.48;100695.65;117284;1185;21866;-53
2022/03/24 09:12:02;;;;;;;11.90;7.80;;;;;;;19.92;28.59;100690.60;117396;1182;23576;-69
2022/03/24 09:14:51;;;;;;;14.40;8.20;;;;;;;20.05;28.60;100687.71;117321;1185;23542;-69
2022/03/24 09:17:20;;;;;;;17.40;7.50;;;;;;;20.12;28.31;100688.95;118444;1184;24711;-54
2022/03/24 09:20:10;;;;;;;11.70;7.40;;;;;;;20.29;28.47;100686.77;117306;1186;23232;-53
2022/03/24 09:22:39;;;;;;;13.30;8.60;;;;;;;20.44;28.44;100683.52;117308;1185;24351;-54
2022/03/24 09:25:09;;;;;;;12.70;7.60;;;;;;;20.52;28.25;100672.64;117369;1185;22094;-68
2022/03/24 09:27:40;;;;;;;12.40;8.60;;;;;;;20.70;28.27;100668.02;117347;1185;22967;-54
2022/03/24 09:30:11;;;;;;;16.50;8.80;;;;;;;20.85;28.32;100667.09;117332;1185;22985;-68
2022/03/24 09:32:41;;;;;;;12.60;7.60;;;;;;;20.94;28.15;100664.34;117365;1184;21852;-69
2022/03/24 09:35:10;;;;;;;14.60;8.90;;;;;;;21.04;28.21;100658.45;117311;1185;21849;-54
2022/03/24 09:37:42;;;;;;;15.00;8.20;;;;;;;21.18;28.03;100654.88;117299;1185;21858;-69
2022/03/24 09:40:12;;;;;;;15.80;8.40;;;;;;;21.39;27.98;100647.38;117388;1184;22832;-54
2022/03/24 09:42:40;;;;;;;14.30;9.00;;;;;;;21.56;28.02;100645.73;117376;1185;22333;-69
2022/03/24 09:45:11;;;;;;;14.30;9.10;;;;;;;21.62;27.90;100641.36;117381;1183;24170;-53
2022/03/24 09:47:40;;;;;;;12.00;8.90;;;;;;;21.71;28.00;100639.45;117401;1180;22941;-70
2022/03/24 09:50:10;;;;;;;13.90;9.50;;;;;;;21.72;27.78;100637.96;117351;1185;21867;-69
2022/03/24 09:52:39;;;;;;;13.90;8.40;;;;;;;21.78;27.82;100634.58;117345;1185;24170;-54
2022/03/24 09:55:08;;;;;;;12.50;9.10;;;;;;;21.84;27.92;100628.90;117330;1184;21848;-54
2022/03/24 09:57:37;;;;;;;13.50;9.00;;;;;;;22.00;27.93;100629.05;117318;1185;21875;-70
2022/03/24 10:00:26;;;;;;;12.80;8.40;;;;;;;22.24;27.93;100621.83;117310;1185;23553;-69
2022/03/24 10:03:22;;;;;;;11.50;7.90;;;;;;;22.35;27.81;100618.34;117364;1186;23547;-70
2022/03/24 10:05:58;;;;;;;13.10;8.30;;;;;;;22.45;27.78;100618.91;117404;1185;21851;-55
2022/03/24 10:08:28;;;;;;;12.60;8.30;;;;;;;22.70;28.09;100614.38;117302;1186;22998;-70
2022/03/24 10:10:59;;;;;;;12.30;8.40;;;;;;;23.11;28.18;100611.20;117298;1189;22928;-52
2022/03/24 10:13:54;;;;;;;12.20;8.30;;;;;;;23.36;28.09;100604.13;117334;1184;23633;-68
2022/03/24 10:16:33;;;;;;;11.20;7.80;;;;;;;23.67;27.74;100594.50;117378;1185;24175;-54
2022/03/24 10:19:23;;;;;;;13.90;7.80;;;;;;;23.87;27.90;100592.50;117340;1184;21843;-54
2022/03/24 10:21:53;;;;;;;12.20;7.60;;;;;;;24.13;27.73;100587.09;117376;1186;21853;-54
2022/03/24 10:24:22;;;;;;;12.10;7.50;;;;;;;24.16;27.63;100587.64;118320;1184;23467;-54
2022/03/24 10:27:00;;;;;;;10.10;6.50;;;;;;;24.02;27.37;100587.66;117402;1185;21853;-71
2022/03/24 10:29:31;;;;;;;11.40;6.90;;;;;;;23.93;27.18;100583.73;117399;1185;21851;-69
2022/03/24 10:32:01;;;;;;;13.90;7.70;;;;;;;24.07;27.64;100576.55;117387;1185;21846;-68
2022/03/24 10:34:36;;;;;;;15.50;7.80;;;;;;;24.36;27.47;100571.65;117345;1185;22999;-53
2022/03/24 10:37:07;;;;;;;11.20;7.90;;;;;;;24.40;27.05;100563.30;117359;1186;23467;-68
2022/03/24 10:39:36;;;;;;;13.30;9.10;;;;;;;24.37;26.79;100562.62;117362;1186;24190;-69
2022/03/24 10:42:18;;;;;;;18.10;8.20;;;;;;;24.53;27.22;100558.66;117339;1184;22826;-53
2022/03/24 10:45:10;;;;;;;10.60;7.60;;;;;;;24.88;27.21;100557.69;117321;1184;21861;-52
2022/03/24 10:47:56;;;;;;;11.80;8.00;;;;;;;25.39;27.35;100548.06;117320;1185;21853;-54
2022/03/24 10:50:43;;;;;;;13.00;7.90;;;;;;;25.74;27.01;100546.39;117323;1186;21871;-70
2022/03/24 10:53:15;;;;;;;13.70;8.60;;;;;;;25.80;26.62;100538.58;117378;1185;23755;-54
2022/03/24 10:55:50;;;;;;;12.10;8.40;;;;;;;25.72;26.29;100532.71;117413;1185;21842;-54
2022/03/24 10:58:27;;;;;;;15.70;9.50;;;;;;;25.54;26.33;100531.86;117364;1182;21853;-54
2022/03/24 11:00:58;;;;;;;14.60;9.30;;;;;;;25.28;26.43;100524.98;117372;1185;22993;-69
2022/03/24 11:03:27;;;;;;;15.00;10.10;;;;;;;24.94;26.15;100519.76;117337;1185;21896;-54
2022/03/24 11:06:13;;;;;;;13.10;9.30;;;;;;;24.63;26.10;100515.98;117360;1182;21847;-54
2022/03/24 11:08:59;;;;;;;13.40;9.50;;;;;;;24.68;26.39;100508.27;117318;1186;22836;-54
2022/03/24 11:11:28;;;;;;;11.20;8.90;;;;;;;24.91;26.47;100500.04;117366;1185;21853;-69
2022/03/24 11:14:02;;;;;;;14.00;9.00;;;;;;;24.95;26.40;100499.10;117283;1186;22615;-68
2022/03/24 11:16:31;;;;;;;;;;;;;;;24.95;26.10;100493.50;117233;1184;22786;-68
2022/03/24 11:19:02;;;;;;;12.40;8.70;;;;;;;25.05;26.20;100486.16;117377;1185;22807;-68
2022/03/24 11:21:34;;;;;;;16.60;10.10;;;;;;;25.17;26.12;100481.86;117359;1186;22839;-67
2022/03/24 11:24:06;;;;;;;15.30;9.50;;;;;;;25.17;26.06;100477.20;117388;1186;23688;-68
2022/03/24 11:26:36;;;;;;;13.20;10.80;;;;;;;25.11;25.92;100467.21;117277;1186;22617;-67
2022/03/24 11:29:05;;;;;;;18.60;11.70;;;;;;;25.15;25.90;100462.09;117255;1182;21859;-67
2022/03/24 11:31:36;;;;;;;;;;;;;;;25.33;26.06;100457.23;117387;1185;21883;-66